sensor_id;sensor_type;location;lat;lon;timestamp;temperature;humidity
23562;DHT22;11959;49.418;8.728;2023-08-08T00:02:03;13.20;99.90
23562;DHT22;11959;49.418;8.728;2023-08-08T00:04:28;13.20;99.90
23562;DHT22;11959;49.418;8.728;2023-08-08T00:06:54;13.20;99.90
23562;DHT22;11959;49.418;8.728;2023-08-08T00:09:19;13.20;99.90
23562;DHT22;11959;49.418;8.728;2023-08-08T00:11:45;13.10;99.90
23562;DHT22;11959;49.418;8.728;2023-08-08T00:14:11;13.10;99.90
23562;DHT22;11959;49.418;8.728;2023-08-08T00:16:37;13.10;99.90
23562;DHT22;11959;49.418;8.728;2023-08-08T00:19:02;13.00;99.90
23562;DHT22;11959;49.418;8.728;2023-08-08T00:21:28;13.10;99.90
23562;DHT22;11959;49.418;8.728;2023-08-08T00:23:54;13.10;99.90
23562;DHT22;11959;49.418;8.728;2023-08-08T00:26:20;13.10;99.90
23562;DHT22;11959;49.418;8.728;2023-08-08T00:28:45;13.00;99.90
23562;DHT22;11959;49.418;8.728;2023-08-08T00:31:11;13.10;99.90
23562;DHT22;11959;49.418;8.728;2023-08-08T00:33:36;13.00;99.90
23562;DHT22;11959;49.418;8.728;2023-08-08T00:36:02;13.00;99.90
23562;DHT22;11959;49.418;8.728;2023-08-08T00:38:28;13.00;99.90
23562;DHT22;11959;49.418;8.728;2023-08-08T00:40:54;13.00;99.90
23562;DHT22;11959;49.418;8.728;2023-08-08T00:43:19;13.00;99.90
23562;DHT22;11959;49.418;8.728;2023-08-08T00:45:45;13.00;99.90
23562;DHT22;11959;49.418;8.728;2023-08-08T00:48:11;13.10;99.90
23562;DHT22;11959;49.418;8.728;2023-08-08T00:50:37;13.00;99.90
23562;DHT22;11959;49.418;8.728;2023-08-08T00:53:04;13.00;99.90
23562;DHT22;11959;49.418;8.728;2023-08-08T00:55:30;13.00;99.90
23562;DHT22;11959;49.418;8.728;2023-08-08T00:57:56;13.00;99.90
23562;DHT22;11959;49.418;8.728;2023-08-08T01:00:22;13.00;99.90
23562;DHT22;11959;49.418;8.728;2023-08-08T01:02:48;13.00;99.90
23562;DHT22;11959;49.418;8.728;2023-08-08T01:05:14;13.00;99.90
23562;DHT22;11959;49.418;8.728;2023-08-08T01:08:06;13.00;99.90
23562;DHT22;11959;49.418;8.728;2023-08-08T01:10:36;13.00;99.90
23562;DHT22;11959;49.418;8.728;2023-08-08T01:13:07;13.00;99.90
23562;DHT22;11959;49.418;8.728;2023-08-08T01:15:34;12.90;99.90
23562;DHT22;11959;49.418;8.728;2023-08-08T01:18:08;12.90;99.90
23562;DHT22;11959;49.418;8.728;2023-08-08T01:20:34;12.90;99.90
23562;DHT22;11959;49.418;8.728;2023-08-08T01:25:46;12.90;99.90
23562;DHT22;11959;49.418;8.728;2023-08-08T01:28:13;12.90;99.90
23562;DHT22;11959;49.418;8.728;2023-08-08T01:30:39;12.90;99.90
23562;DHT22;11959;49.418;8.728;2023-08-08T01:33:06;12.80;99.90
23562;DHT22;11959;49.418;8.728;2023-08-08T01:35:37;12.80;99.90
23562;DHT22;11959;49.418;8.728;2023-08-08T01:38:19;12.80;99.90
23562;DHT22;11959;49.418;8.728;2023-08-08T01:40:46;12.80;99.90
23562;DHT22;11959;49.418;8.728;2023-08-08T01:43:14;12.70;99.90
23562;DHT22;11959;49.418;8.728;2023-08-08T01:45:41;12.70;99.90
23562;DHT22;11959;49.418;8.728;2023-08-08T01:48:09;12.70;99.90
23562;DHT22;11959;49.418;8.728;2023-08-08T01:50:35;12.70;99.90
23562;DHT22;11959;49.418;8.728;2023-08-08T01:53:01;12.70;99.90
23562;DHT22;11959;49.418;8.728;2023-08-08T01:55:27;12.70;99.90
23562;DHT22;11959;49.418;8.728;2023-08-08T01:57:52;12.70;99.90
23562;DHT22;11959;49.418;8.728;2023-08-08T02:00:18;12.70;99.90
23562;DHT22;11959;49.418;8.728;2023-08-08T02:02:44;12.60;99.90
23562;DHT22;11959;49.418;8.728;2023-08-08T02:05:09;12.60;99.90
23562;DHT22;11959;49.418;8.728;2023-08-08T02:07:35;12.60;99.90
23562;DHT22;11959;49.418;8.728;2023-08-08T02:10:01;12.60;99.90
23562;DHT22;11959;49.418;8.728;2023-08-08T02:12:26;12.60;99.90
23562;DHT22;11959;49.418;8.728;2023-08-08T02:14:54;12.60;99.90
23562;DHT22;11959;49.418;8.728;2023-08-08T02:17:21;12.60;99.90
23562;DHT22;11959;49.418;8.728;2023-08-08T02:19:46;12.60;99.90
23562;DHT22;11959;49.418;8.728;2023-08-08T02:22:12;12.50;99.90
23562;DHT22;11959;49.418;8.728;2023-08-08T02:24:38;12.50;99.90
23562;DHT22;11959;49.418;8.728;2023-08-08T02:27:03;12.50;99.90
23562;DHT22;11959;49.418;8.728;2023-08-08T02:29:30;12.40;99.90
23562;DHT22;11959;49.418;8.728;2023-08-08T02:31:55;12.40;99.90
23562;DHT22;11959;49.418;8.728;2023-08-08T02:34:21;12.40;99.90
23562;DHT22;11959;49.418;8.728;2023-08-08T02:36:47;12.40;99.90
23562;DHT22;11959;49.418;8.728;2023-08-08T02:39:12;12.40;99.90
23562;DHT22;11959;49.418;8.728;2023-08-08T02:41:38;12.40;99.90
23562;DHT22;11959;49.418;8.728;2023-08-08T02:44:03;12.30;99.90
23562;DHT22;11959;49.418;8.728;2023-08-08T02:46:29;12.30;99.90
23562;DHT22;11959;49.418;8.728;2023-08-08T02:48:55;12.30;99.90
23562;DHT22;11959;49.418;8.728;2023-08-08T02:51:20;12.30;99.90
23562;DHT22;11959;49.418;8.728;2023-08-08T02:53:46;12.30;99.90
23562;DHT22;11959;49.418;8.728;2023-08-08T02:56:11;12.30;99.90
23562;DHT22;11959;49.418;8.728;2023-08-08T02:58:37;12.30;99.90
23562;DHT22;11959;49.418;8.728;2023-08-08T03:01:03;12.30;99.90
23562;DHT22;11959;49.418;8.728;2023-08-08T03:03:28;12.30;99.90
23562;DHT22;11959;49.418;8.728;2023-08-08T03:05:54;12.30;99.90
23562;DHT22;11959;49.418;8.728;2023-08-08T03:08:20;12.20;99.90
23562;DHT22;11959;49.418;8.728;2023-08-08T03:10:45;12.20;99.90
23562;DHT22;11959;49.418;8.728;2023-08-08T03:13:11;12.20;99.90
23562;DHT22;11959;49.418;8.728;2023-08-08T03:15:37;12.20;99.90
23562;DHT22;11959;49.418;8.728;2023-08-08T03:18:02;12.20;99.90
23562;DHT22;11959;49.418;8.728;2023-08-08T03:20:28;12.20;99.90
23562;DHT22;11959;49.418;8.728;2023-08-08T03:22:54;12.20;99.90
23562;DHT22;11959;49.418;8.728;2023-08-08T03:25:20;12.20;99.90
23562;DHT22;11959;49.418;8.728;2023-08-08T03:27:46;12.20;99.90
23562;DHT22;11959;49.418;8.728;2023-08-08T03:30:12;12.20;99.90
23562;DHT22;11959;49.418;8.728;2023-08-08T03:32:37;12.20;99.90
23562;DHT22;11959;49.418;8.728;2023-08-08T03:35:03;12.20;99.90
23562;DHT22;11959;49.418;8.728;2023-08-08T03:37:29;12.20;99.90
23562;DHT22;11959;49.418;8.728;2023-08-08T03:39:55;12.10;99.90
23562;DHT22;11959;49.418;8.728;2023-08-08T03:42:21;12.20;99.90
23562;DHT22;11959;49.418;8.728;2023-08-08T03:44:46;12.20;99.90
23562;DHT22;11959;49.418;8.728;2023-08-08T03:47:12;12.10;99.90
23562;DHT22;11959;49.418;8.728;2023-08-08T03:49:38;12.10;99.90
23562;DHT22;11959;49.418;8.728;2023-08-08T03:52:03;12.10;99.90
23562;DHT22;11959;49.418;8.728;2023-08-08T03:54:30;12.20;99.90
23562;DHT22;11959;49.418;8.728;2023-08-08T03:56:56;12.20;99.90
23562;DHT22;11959;49.418;8.728;2023-08-08T03:59:21;12.20;99.90
23562;DHT22;11959;49.418;8.728;2023-08-08T04:01:47;12.20;99.90
23562;DHT22;11959;49.418;8.728;2023-08-08T04:04:13;12.20;99.90
23562;DHT22;11959;49.418;8.728;2023-08-08T04:06:38;12.20;99.90
23562;DHT22;11959;49.418;8.728;2023-08-08T04:09:04;12.20;99.90
23562;DHT22;11959;49.418;8.728;2023-08-08T04:11:30;12.20;99.90
23562;DHT22;11959;49.418;8.728;2023-08-08T04:13:56;12.20;99.90
23562;DHT22;11959;49.418;8.728;2023-08-08T04:16:21;12.20;99.90
23562;DHT22;11959;49.418;8.728;2023-08-08T04:18:47;12.20;99.90
23562;DHT22;11959;49.418;8.728;2023-08-08T04:21:13;12.20;99.90
23562;DHT22;11959;49.418;8.728;2023-08-08T04:23:38;12.20;99.90
23562;DHT22;11959;49.418;8.728;2023-08-08T04:26:04;12.20;99.90
23562;DHT22;11959;49.418;8.728;2023-08-08T04:28:29;12.20;99.90
23562;DHT22;11959;49.418;8.728;2023-08-08T04:30:55;12.20;99.90
23562;DHT22;11959;49.418;8.728;2023-08-08T04:33:21;12.20;99.90
23562;DHT22;11959;49.418;8.728;2023-08-08T04:35:46;12.20;99.90
23562;DHT22;11959;49.418;8.728;2023-08-08T04:38:14;12.20;99.90
23562;DHT22;11959;49.418;8.728;2023-08-08T04:40:40;12.20;99.90
23562;DHT22;11959;49.418;8.728;2023-08-08T04:43:05;12.20;99.90
23562;DHT22;11959;49.418;8.728;2023-08-08T04:45:31;12.20;99.90
23562;DHT22;11959;49.418;8.728;2023-08-08T04:47:57;12.20;99.90
23562;DHT22;11959;49.418;8.728;2023-08-08T04:50:23;12.20;99.90
23562;DHT22;11959;49.418;8.728;2023-08-08T04:52:49;12.20;99.90
23562;DHT22;11959;49.418;8.728;2023-08-08T04:55:14;12.20;99.90
23562;DHT22;11959;49.418;8.728;2023-08-08T04:57:40;12.30;99.90
23562;DHT22;11959;49.418;8.728;2023-08-08T05:00:11;12.30;99.90
23562;DHT22;11959;49.418;8.728;2023-08-08T05:02:38;12.30;99.90
23562;DHT22;11959;49.418;8.728;2023-08-08T05:05:06;12.40;99.90
23562;DHT22;11959;49.418;8.728;2023-08-08T05:07:32;12.40;99.90
23562;DHT22;11959;49.418;8.728;2023-08-08T05:09:58;12.40;99.90
23562;DHT22;11959;49.418;8.728;2023-08-08T05:12:24;12.40;99.90
23562;DHT22;11959;49.418;8.728;2023-08-08T05:14:49;12.40;99.90
23562;DHT22;11959;49.418;8.728;2023-08-08T05:17:17;12.50;99.90
23562;DHT22;11959;49.418;8.728;2023-08-08T05:19:44;12.50;99.90
23562;DHT22;11959;49.418;8.728;2023-08-08T05:22:09;12.60;99.90
23562;DHT22;11959;49.418;8.728;2023-08-08T05:24:35;12.60;99.90
23562;DHT22;11959;49.418;8.728;2023-08-08T05:27:01;12.60;99.90
23562;DHT22;11959;49.418;8.728;2023-08-08T05:29:26;12.60;99.90
23562;DHT22;11959;49.418;8.728;2023-08-08T05:31:52;12.60;99.90
23562;DHT22;11959;49.418;8.728;2023-08-08T05:34:18;12.60;99.90
23562;DHT22;11959;49.418;8.728;2023-08-08T05:36:43;12.60;99.90
23562;DHT22;11959;49.418;8.728;2023-08-08T05:39:09;12.60;99.90
23562;DHT22;11959;49.418;8.728;2023-08-08T05:41:35;12.60;99.90
23562;DHT22;11959;49.418;8.728;2023-08-08T05:44:03;12.60;99.90
23562;DHT22;11959;49.418;8.728;2023-08-08T05:46:30;12.70;99.90
23562;DHT22;11959;49.418;8.728;2023-08-08T05:48:55;12.80;99.90
23562;DHT22;11959;49.418;8.728;2023-08-08T05:51:21;12.80;99.90
23562;DHT22;11959;49.418;8.728;2023-08-08T05:53:47;12.80;99.90
23562;DHT22;11959;49.418;8.728;2023-08-08T05:56:13;12.90;99.90
23562;DHT22;11959;49.418;8.728;2023-08-08T05:58:38;12.90;99.90
23562;DHT22;11959;49.418;8.728;2023-08-08T06:01:05;12.90;99.90
23562;DHT22;11959;49.418;8.728;2023-08-08T06:03:35;13.00;99.90
23562;DHT22;11959;49.418;8.728;2023-08-08T06:06:01;13.00;99.90
23562;DHT22;11959;49.418;8.728;2023-08-08T06:08:26;13.00;99.90
23562;DHT22;11959;49.418;8.728;2023-08-08T06:10:52;13.00;99.90
23562;DHT22;11959;49.418;8.728;2023-08-08T06:13:18;13.10;99.90
23562;DHT22;11959;49.418;8.728;2023-08-08T06:15:43;13.10;99.90
23562;DHT22;11959;49.418;8.728;2023-08-08T06:18:09;13.20;99.90
23562;DHT22;11959;49.418;8.728;2023-08-08T06:20:35;13.20;99.90
23562;DHT22;11959;49.418;8.728;2023-08-08T06:23:00;13.30;99.90
23562;DHT22;11959;49.418;8.728;2023-08-08T06:25:26;13.30;99.90
23562;DHT22;11959;49.418;8.728;2023-08-08T06:27:53;13.30;99.90
23562;DHT22;11959;49.418;8.728;2023-08-08T06:30:19;13.30;99.90
23562;DHT22;11959;49.418;8.728;2023-08-08T06:32:44;13.40;99.90
23562;DHT22;11959;49.418;8.728;2023-08-08T06:35:10;13.50;99.90
23562;DHT22;11959;49.418;8.728;2023-08-08T06:37:36;13.50;99.90
23562;DHT22;11959;49.418;8.728;2023-08-08T06:40:01;13.60;99.90
23562;DHT22;11959;49.418;8.728;2023-08-08T06:42:27;13.70;99.90
23562;DHT22;11959;49.418;8.728;2023-08-08T06:44:53;13.80;99.90
23562;DHT22;11959;49.418;8.728;2023-08-08T06:47:19;13.80;99.90
23562;DHT22;11959;49.418;8.728;2023-08-08T06:49:44;13.90;99.90
23562;DHT22;11959;49.418;8.728;2023-08-08T06:52:10;14.00;99.90
23562;DHT22;11959;49.418;8.728;2023-08-08T06:54:35;14.00;99.90
23562;DHT22;11959;49.418;8.728;2023-08-08T06:57:01;14.10;99.90
23562;DHT22;11959;49.418;8.728;2023-08-08T06:59:27;14.20;99.90
23562;DHT22;11959;49.418;8.728;2023-08-08T07:01:53;14.30;99.90
23562;DHT22;11959;49.418;8.728;2023-08-08T07:04:19;14.40;99.90
23562;DHT22;11959;49.418;8.728;2023-08-08T07:06:44;14.40;99.90
23562;DHT22;11959;49.418;8.728;2023-08-08T07:09:11;14.50;99.90
23562;DHT22;11959;49.418;8.728;2023-08-08T07:11:37;14.60;99.90
23562;DHT22;11959;49.418;8.728;2023-08-08T07:14:03;14.70;99.90
23562;DHT22;11959;49.418;8.728;2023-08-08T07:16:29;14.80;99.90
23562;DHT22;11959;49.418;8.728;2023-08-08T07:18:54;14.90;99.90
23562;DHT22;11959;49.418;8.728;2023-08-08T07:21:20;14.90;99.90
23562;DHT22;11959;49.418;8.728;2023-08-08T07:23:46;15.00;99.90
23562;DHT22;11959;49.418;8.728;2023-08-08T07:26:11;15.00;99.90
23562;DHT22;11959;49.418;8.728;2023-08-08T07:28:38;15.00;99.90
23562;DHT22;11959;49.418;8.728;2023-08-08T07:31:04;15.00;99.90
23562;DHT22;11959;49.418;8.728;2023-08-08T07:33:29;15.10;99.90
23562;DHT22;11959;49.418;8.728;2023-08-08T07:35:55;15.20;99.90
23562;DHT22;11959;49.418;8.728;2023-08-08T07:38:21;15.30;99.90
23562;DHT22;11959;49.418;8.728;2023-08-08T07:40:46;15.40;99.90
23562;DHT22;11959;49.418;8.728;2023-08-08T07:43:13;15.50;99.90
23562;DHT22;11959;49.418;8.728;2023-08-08T07:45:39;15.50;99.90
23562;DHT22;11959;49.418;8.728;2023-08-08T07:48:05;15.60;99.90
23562;DHT22;11959;49.418;8.728;2023-08-08T07:50:31;15.70;99.90
23562;DHT22;11959;49.418;8.728;2023-08-08T07:52:56;15.80;99.90
23562;DHT22;11959;49.418;8.728;2023-08-08T07:55:22;16.00;99.90
23562;DHT22;11959;49.418;8.728;2023-08-08T07:57:48;16.10;99.90
23562;DHT22;11959;49.418;8.728;2023-08-08T08:00:14;16.10;99.90
23562;DHT22;11959;49.418;8.728;2023-08-08T08:02:41;16.20;99.90
23562;DHT22;11959;49.418;8.728;2023-08-08T08:05:08;16.30;99.90
23562;DHT22;11959;49.418;8.728;2023-08-08T08:07:35;16.30;99.90
23562;DHT22;11959;49.418;8.728;2023-08-08T08:10:06;16.40;99.90
23562;DHT22;11959;49.418;8.728;2023-08-08T08:12:32;16.50;99.90
23562;DHT22;11959;49.418;8.728;2023-08-08T08:14:58;16.50;99.90
23562;DHT22;11959;49.418;8.728;2023-08-08T08:17:24;16.60;99.90
23562;DHT22;11959;49.418;8.728;2023-08-08T08:19:51;16.80;99.90
23562;DHT22;11959;49.418;8.728;2023-08-08T08:22:17;16.90;99.90
23562;DHT22;11959;49.418;8.728;2023-08-08T08:24:42;17.00;99.90
23562;DHT22;11959;49.418;8.728;2023-08-08T08:27:08;17.00;99.90
23562;DHT22;11959;49.418;8.728;2023-08-08T08:29:34;17.00;99.90
23562;DHT22;11959;49.418;8.728;2023-08-08T08:31:59;17.20;99.90
23562;DHT22;11959;49.418;8.728;2023-08-08T08:34:25;17.20;99.90
23562;DHT22;11959;49.418;8.728;2023-08-08T08:36:51;17.30;99.90
23562;DHT22;11959;49.418;8.728;2023-08-08T08:39:16;17.40;99.90
23562;DHT22;11959;49.418;8.728;2023-08-08T08:41:44;17.40;99.90
23562;DHT22;11959;49.418;8.728;2023-08-08T08:44:12;17.40;99.90
23562;DHT22;11959;49.418;8.728;2023-08-08T08:46:39;17.50;99.90
23562;DHT22;11959;49.418;8.728;2023-08-08T08:49:05;17.60;99.90
23562;DHT22;11959;49.418;8.728;2023-08-08T08:51:35;17.70;99.90
23562;DHT22;11959;49.418;8.728;2023-08-08T08:54:01;17.80;99.90
23562;DHT22;11959;49.418;8.728;2023-08-08T08:56:27;17.90;99.90
23562;DHT22;11959;49.418;8.728;2023-08-08T08:58:52;18.10;99.90
23562;DHT22;11959;49.418;8.728;2023-08-08T09:01:18;18.20;99.90
23562;DHT22;11959;49.418;8.728;2023-08-08T09:03:45;18.30;99.90
23562;DHT22;11959;49.418;8.728;2023-08-08T09:06:11;18.30;99.90
23562;DHT22;11959;49.418;8.728;2023-08-08T09:08:37;18.40;99.90
23562;DHT22;11959;49.418;8.728;2023-08-08T09:11:03;18.50;99.90
23562;DHT22;11959;49.418;8.728;2023-08-08T09:13:39;18.50;99.90
23562;DHT22;11959;49.418;8.728;2023-08-08T09:16:06;18.60;99.90
23562;DHT22;11959;49.418;8.728;2023-08-08T09:18:32;18.50;99.90
23562;DHT22;11959;49.418;8.728;2023-08-08T09:20:58;18.60;99.90
23562;DHT22;11959;49.418;8.728;2023-08-08T09:23:24;18.70;99.90
23562;DHT22;11959;49.418;8.728;2023-08-08T09:25:50;18.70;99.90
23562;DHT22;11959;49.418;8.728;2023-08-08T09:28:16;18.90;99.90
23562;DHT22;11959;49.418;8.728;2023-08-08T09:30:42;19.00;99.90
23562;DHT22;11959;49.418;8.728;2023-08-08T09:33:08;18.90;99.90
23562;DHT22;11959;49.418;8.728;2023-08-08T09:35:34;18.90;99.90
23562;DHT22;11959;49.418;8.728;2023-08-08T09:37:59;19.10;99.90
23562;DHT22;11959;49.418;8.728;2023-08-08T09:40:25;19.10;99.90
23562;DHT22;11959;49.418;8.728;2023-08-08T09:42:52;19.10;99.90
23562;DHT22;11959;49.418;8.728;2023-08-08T09:45:19;19.00;99.90
23562;DHT22;11959;49.418;8.728;2023-08-08T09:47:45;19.00;99.90
23562;DHT22;11959;49.418;8.728;2023-08-08T09:50:11;19.10;99.90
23562;DHT22;11959;49.418;8.728;2023-08-08T09:52:37;19.20;99.90
23562;DHT22;11959;49.418;8.728;2023-08-08T09:55:04;19.20;99.90
23562;DHT22;11959;49.418;8.728;2023-08-08T09:57:31;19.30;99.90
23562;DHT22;11959;49.418;8.728;2023-08-08T09:59:57;19.40;99.90
23562;DHT22;11959;49.418;8.728;2023-08-08T10:02:24;19.50;99.90
23562;DHT22;11959;49.418;8.728;2023-08-08T10:04:51;19.70;99.90
23562;DHT22;11959;49.418;8.728;2023-08-08T10:07:17;19.80;99.90
23562;DHT22;11959;49.418;8.728;2023-08-08T10:09:43;19.80;99.90
23562;DHT22;11959;49.418;8.728;2023-08-08T10:12:11;19.80;99.90
23562;DHT22;11959;49.418;8.728;2023-08-08T10:14:41;19.80;99.90
23562;DHT22;11959;49.418;8.728;2023-08-08T10:17:07;19.80;99.90
23562;DHT22;11959;49.418;8.728;2023-08-08T10:19:33;20.00;99.90
23562;DHT22;11959;49.418;8.728;2023-08-08T10:22:03;20.10;99.90
23562;DHT22;11959;49.418;8.728;2023-08-08T10:24:35;20.30;99.90
23562;DHT22;11959;49.418;8.728;2023-08-08T10:27:02;20.40;99.90
23562;DHT22;11959;49.418;8.728;2023-08-08T10:29:31;20.40;99.90
23562;DHT22;11959;49.418;8.728;2023-08-08T10:32:01;20.40;99.90
23562;DHT22;11959;49.418;8.728;2023-08-08T10:34:40;20.60;99.90
23562;DHT22;11959;49.418;8.728;2023-08-08T10:37:10;20.60;99.90
23562;DHT22;11959;49.418;8.728;2023-08-08T10:39:36;20.70;99.90
23562;DHT22;11959;49.418;8.728;2023-08-08T10:42:05;20.70;99.90
23562;DHT22;11959;49.418;8.728;2023-08-08T10:44:31;20.70;99.90
23562;DHT22;11959;49.418;8.728;2023-08-08T10:46:57;20.60;99.90
23562;DHT22;11959;49.418;8.728;2023-08-08T10:49:22;20.70;99.90
23562;DHT22;11959;49.418;8.728;2023-08-08T10:51:49;20.80;99.90
23562;DHT22;11959;49.418;8.728;2023-08-08T10:54:23;20.90;99.90
23562;DHT22;11959;49.418;8.728;2023-08-08T10:56:58;21.00;99.90
23562;DHT22;11959;49.418;8.728;2023-08-08T10:59:38;21.10;99.90
23562;DHT22;11959;49.418;8.728;2023-08-08T11:02:04;21.20;99.90
23562;DHT22;11959;49.418;8.728;2023-08-08T11:04:30;21.40;99.90
23562;DHT22;11959;49.418;8.728;2023-08-08T11:06:58;21.30;99.90
23562;DHT22;11959;49.418;8.728;2023-08-08T11:09:24;21.50;99.90
23562;DHT22;11959;49.418;8.728;2023-08-08T11:11:51;21.50;99.90
23562;DHT22;11959;49.418;8.728;2023-08-08T11:14:18;21.60;99.90
23562;DHT22;11959;49.418;8.728;2023-08-08T11:16:45;21.80;99.90
23562;DHT22;11959;49.418;8.728;2023-08-08T11:19:12;21.80;99.90
23562;DHT22;11959;49.418;8.728;2023-08-08T11:21:40;21.80;99.90
23562;DHT22;11959;49.418;8.728;2023-08-08T11:24:08;21.70;99.90
23562;DHT22;11959;49.418;8.728;2023-08-08T11:26:35;21.40;99.90
23562;DHT22;11959;49.418;8.728;2023-08-08T11:29:02;21.40;99.90
23562;DHT22;11959;49.418;8.728;2023-08-08T11:31:29;21.40;99.90
23562;DHT22;11959;49.418;8.728;2023-08-08T11:33:55;21.40;99.90
23562;DHT22;11959;49.418;8.728;2023-08-08T11:36:22;21.50;99.90
23562;DHT22;11959;49.418;8.728;2023-08-08T11:38:48;21.40;99.90
23562;DHT22;11959;49.418;8.728;2023-08-08T11:41:16;21.50;99.90
23562;DHT22;11959;49.418;8.728;2023-08-08T11:43:44;21.60;99.90
23562;DHT22;11959;49.418;8.728;2023-08-08T11:46:13;21.70;99.90
23562;DHT22;11959;49.418;8.728;2023-08-08T11:48:39;21.70;99.90
23562;DHT22;11959;49.418;8.728;2023-08-08T11:51:06;21.60;99.90
23562;DHT22;11959;49.418;8.728;2023-08-08T11:53:32;21.50;99.90
23562;DHT22;11959;49.418;8.728;2023-08-08T11:56:00;21.50;99.90
23562;DHT22;11959;49.418;8.728;2023-08-08T11:58:26;21.50;99.90
23562;DHT22;11959;49.418;8.728;2023-08-08T12:00:52;21.50;99.90
23562;DHT22;11959;49.418;8.728;2023-08-08T12:03:20;21.60;99.90
23562;DHT22;11959;49.418;8.728;2023-08-08T12:05:46;21.50;99.90
23562;DHT22;11959;49.418;8.728;2023-08-08T12:08:12;21.50;99.90
23562;DHT22;11959;49.418;8.728;2023-08-08T12:10:38;21.60;99.90
23562;DHT22;11959;49.418;8.728;2023-08-08T12:13:04;21.80;99.90
23562;DHT22;11959;49.418;8.728;2023-08-08T12:15:35;21.90;99.90
23562;DHT22;11959;49.418;8.728;2023-08-08T12:18:04;21.90;99.90
23562;DHT22;11959;49.418;8.728;2023-08-08T12:20:31;22.00;99.90
23562;DHT22;11959;49.418;8.728;2023-08-08T12:22:57;22.00;99.90
23562;DHT22;11959;49.418;8.728;2023-08-08T12:25:23;22.00;99.90
23562;DHT22;11959;49.418;8.728;2023-08-08T12:27:49;22.10;99.90
23562;DHT22;11959;49.418;8.728;2023-08-08T12:30:15;22.20;99.90
23562;DHT22;11959;49.418;8.728;2023-08-08T12:32:40;22.30;99.90
23562;DHT22;11959;49.418;8.728;2023-08-08T12:35:06;22.40;99.80
23562;DHT22;11959;49.418;8.728;2023-08-08T12:37:33;22.40;99.10
23562;DHT22;11959;49.418;8.728;2023-08-08T12:39:58;22.50;99.90
23562;DHT22;11959;49.418;8.728;2023-08-08T12:42:25;22.60;99.40
23562;DHT22;11959;49.418;8.728;2023-08-08T12:44:50;22.60;98.60
23562;DHT22;11959;49.418;8.728;2023-08-08T12:47:19;22.50;98.80
23562;DHT22;11959;49.418;8.728;2023-08-08T12:49:46;22.40;99.30
23562;DHT22;11959;49.418;8.728;2023-08-08T12:52:13;22.40;98.30
23562;DHT22;11959;49.418;8.728;2023-08-08T12:54:39;22.40;98.70
23562;DHT22;11959;49.418;8.728;2023-08-08T12:57:04;22.10;98.90
23562;DHT22;11959;49.418;8.728;2023-08-08T12:59:30;22.20;98.70
23562;DHT22;11959;49.418;8.728;2023-08-08T13:01:56;22.30;98.50
23562;DHT22;11959;49.418;8.728;2023-08-08T13:04:22;22.50;97.70
23562;DHT22;11959;49.418;8.728;2023-08-08T13:06:48;22.60;98.70
23562;DHT22;11959;49.418;8.728;2023-08-08T13:09:14;22.70;97.10
23562;DHT22;11959;49.418;8.728;2023-08-08T13:11:41;22.70;96.80
23562;DHT22;11959;49.418;8.728;2023-08-08T13:14:07;22.60;97.50
23562;DHT22;11959;49.418;8.728;2023-08-08T13:16:33;22.60;97.30
23562;DHT22;11959;49.418;8.728;2023-08-08T13:18:58;22.60;96.40
23562;DHT22;11959;49.418;8.728;2023-08-08T13:21:24;22.60;97.20
23562;DHT22;11959;49.418;8.728;2023-08-08T13:23:50;22.60;97.60
23562;DHT22;11959;49.418;8.728;2023-08-08T13:26:15;22.60;96.20
23562;DHT22;11959;49.418;8.728;2023-08-08T13:28:41;22.60;96.60
23562;DHT22;11959;49.418;8.728;2023-08-08T13:31:08;22.40;97.60
23562;DHT22;11959;49.418;8.728;2023-08-08T13:33:34;22.50;97.60
23562;DHT22;11959;49.418;8.728;2023-08-08T13:36:00;22.50;98.30
23562;DHT22;11959;49.418;8.728;2023-08-08T13:38:26;22.50;97.70
23562;DHT22;11959;49.418;8.728;2023-08-08T13:40:52;22.40;98.20
23562;DHT22;11959;49.418;8.728;2023-08-08T13:43:18;22.40;98.50
23562;DHT22;11959;49.418;8.728;2023-08-08T13:45:44;22.30;98.40
23562;DHT22;11959;49.418;8.728;2023-08-08T13:48:10;22.20;98.70
23562;DHT22;11959;49.418;8.728;2023-08-08T13:50:35;22.30;98.30
23562;DHT22;11959;49.418;8.728;2023-08-08T13:53:01;22.30;98.00
23562;DHT22;11959;49.418;8.728;2023-08-08T13:55:27;22.20;98.00
23562;DHT22;11959;49.418;8.728;2023-08-08T13:57:52;22.10;97.80
23562;DHT22;11959;49.418;8.728;2023-08-08T14:00:20;22.10;97.80
23562;DHT22;11959;49.418;8.728;2023-08-08T14:02:47;22.20;97.90
23562;DHT22;11959;49.418;8.728;2023-08-08T14:05:12;22.30;97.90
23562;DHT22;11959;49.418;8.728;2023-08-08T14:07:38;22.30;98.30
23562;DHT22;11959;49.418;8.728;2023-08-08T14:10:04;22.20;98.90
23562;DHT22;11959;49.418;8.728;2023-08-08T14:12:30;22.30;97.70
23562;DHT22;11959;49.418;8.728;2023-08-08T14:14:56;22.40;97.30
23562;DHT22;11959;49.418;8.728;2023-08-08T14:17:22;22.30;96.70
23562;DHT22;11959;49.418;8.728;2023-08-08T14:19:47;22.40;97.60
23562;DHT22;11959;49.418;8.728;2023-08-08T14:22:13;22.20;98.40
23562;DHT22;11959;49.418;8.728;2023-08-08T14:24:42;22.10;98.60
23562;DHT22;11959;49.418;8.728;2023-08-08T14:27:08;22.20;98.60
23562;DHT22;11959;49.418;8.728;2023-08-08T14:29:34;22.20;98.40
23562;DHT22;11959;49.418;8.728;2023-08-08T14:31:59;22.20;97.50
23562;DHT22;11959;49.418;8.728;2023-08-08T14:34:32;22.20;97.40
23562;DHT22;11959;49.418;8.728;2023-08-08T14:37:00;22.20;97.50
23562;DHT22;11959;49.418;8.728;2023-08-08T14:39:26;22.20;97.10
23562;DHT22;11959;49.418;8.728;2023-08-08T14:41:52;22.30;97.30
23562;DHT22;11959;49.418;8.728;2023-08-08T14:44:18;22.30;97.90
23562;DHT22;11959;49.418;8.728;2023-08-08T14:46:44;22.30;97.80
23562;DHT22;11959;49.418;8.728;2023-08-08T14:49:10;22.30;97.70
23562;DHT22;11959;49.418;8.728;2023-08-08T14:51:35;22.30;96.90
23562;DHT22;11959;49.418;8.728;2023-08-08T14:54:02;22.30;97.70
23562;DHT22;11959;49.418;8.728;2023-08-08T14:56:28;22.40;97.70
23562;DHT22;11959;49.418;8.728;2023-08-08T14:58:53;22.40;97.70
23562;DHT22;11959;49.418;8.728;2023-08-08T15:01:19;22.30;98.00
23562;DHT22;11959;49.418;8.728;2023-08-08T15:03:45;22.30;97.50
23562;DHT22;11959;49.418;8.728;2023-08-08T15:06:10;22.10;98.40
23562;DHT22;11959;49.418;8.728;2023-08-08T15:08:36;22.10;98.60
23562;DHT22;11959;49.418;8.728;2023-08-08T15:11:02;22.00;99.30
23562;DHT22;11959;49.418;8.728;2023-08-08T15:13:28;21.70;98.60
23562;DHT22;11959;49.418;8.728;2023-08-08T15:15:54;21.60;98.50
23562;DHT22;11959;49.418;8.728;2023-08-08T15:18:19;21.60;98.70
23562;DHT22;11959;49.418;8.728;2023-08-08T15:20:45;21.60;98.30
23562;DHT22;11959;49.418;8.728;2023-08-08T15:23:11;21.50;98.60
23562;DHT22;11959;49.418;8.728;2023-08-08T15:25:40;21.50;99.70
23562;DHT22;11959;49.418;8.728;2023-08-08T15:28:07;21.50;98.60